sensor_id;sensor_type;location;lat;lon;timestamp;temperature;humidity
8103;DHT22;4094;49.948;11.574;2023-04-24T00:01:09;16.30;66.90
8103;DHT22;4094;49.948;11.574;2023-04-24T00:03:42;16.30;66.90
8103;DHT22;4094;49.948;11.574;2023-04-24T00:06:11;16.30;66.90
8103;DHT22;4094;49.948;11.574;2023-04-24T00:08:41;16.30;67.20
8103;DHT22;4094;49.948;11.574;2023-04-24T00:11:10;16.20;67.20
8103;DHT22;4094;49.948;11.574;2023-04-24T00:13:39;16.20;66.90
8103;DHT22;4094;49.948;11.574;2023-04-24T00:16:08;16.20;67.60
8103;DHT22;4094;49.948;11.574;2023-04-24T00:18:38;16.20;67.00
8103;DHT22;4094;49.948;11.574;2023-04-24T00:21:08;16.20;67.20
8103;DHT22;4094;49.948;11.574;2023-04-24T00:23:38;16.20;67.30
8103;DHT22;4094;49.948;11.574;2023-04-24T00:26:07;16.20;67.10
8103;DHT22;4094;49.948;11.574;2023-04-24T00:28:36;16.20;67.20
8103;DHT22;4094;49.948;11.574;2023-04-24T00:31:05;16.20;67.10
8103;DHT22;4094;49.948;11.574;2023-04-24T00:33:35;16.20;66.90
8103;DHT22;4094;49.948;11.574;2023-04-24T00:36:05;16.20;66.80
8103;DHT22;4094;49.948;11.574;2023-04-24T00:38:36;16.10;66.60
8103;DHT22;4094;49.948;11.574;2023-04-24T00:41:05;16.10;66.60
8103;DHT22;4094;49.948;11.574;2023-04-24T00:43:35;16.10;66.60
8103;DHT22;4094;49.948;11.574;2023-04-24T00:46:04;16.10;66.60
8103;DHT22;4094;49.948;11.574;2023-04-24T00:48:34;16.00;66.70
8103;DHT22;4094;49.948;11.574;2023-04-24T00:51:03;16.10;67.00
8103;DHT22;4094;49.948;11.574;2023-04-24T00:53:33;16.00;67.10
8103;DHT22;4094;49.948;11.574;2023-04-24T00:56:04;16.00;66.80
8103;DHT22;4094;49.948;11.574;2023-04-24T00:58:34;16.00;67.00
8103;DHT22;4094;49.948;11.574;2023-04-24T01:01:04;16.00;67.00
8103;DHT22;4094;49.948;11.574;2023-04-24T01:03:35;16.00;67.10
8103;DHT22;4094;49.948;11.574;2023-04-24T01:06:07;16.00;67.10
8103;DHT22;4094;49.948;11.574;2023-04-24T01:08:37;15.90;67.30
8103;DHT22;4094;49.948;11.574;2023-04-24T01:11:08;16.00;67.30
8103;DHT22;4094;49.948;11.574;2023-04-24T01:13:39;16.00;67.30
8103;DHT22;4094;49.948;11.574;2023-04-24T01:16:11;15.90;67.10
8103;DHT22;4094;49.948;11.574;2023-04-24T01:18:40;15.90;67.10
8103;DHT22;4094;49.948;11.574;2023-04-24T01:21:13;15.90;67.10
8103;DHT22;4094;49.948;11.574;2023-04-24T01:23:46;15.80;67.40
8103;DHT22;4094;49.948;11.574;2023-04-24T01:26:16;15.70;67.30
8103;DHT22;4094;49.948;11.574;2023-04-24T01:28:48;15.70;67.70
8103;DHT22;4094;49.948;11.574;2023-04-24T01:31:17;15.70;67.90
8103;DHT22;4094;49.948;11.574;2023-04-24T01:33:47;15.70;68.10
8103;DHT22;4094;49.948;11.574;2023-04-24T01:36:16;15.70;68.10
8103;DHT22;4094;49.948;11.574;2023-04-24T01:38:48;15.70;68.10
8103;DHT22;4094;49.948;11.574;2023-04-24T01:41:17;15.70;68.10
8103;DHT22;4094;49.948;11.574;2023-04-24T01:43:48;15.70;68.20
8103;DHT22;4094;49.948;11.574;2023-04-24T01:46:20;15.70;68.00
8103;DHT22;4094;49.948;11.574;2023-04-24T01:48:51;15.70;67.80
8103;DHT22;4094;49.948;11.574;2023-04-24T01:51:20;15.60;67.90
8103;DHT22;4094;49.948;11.574;2023-04-24T01:53:51;15.60;68.10
8103;DHT22;4094;49.948;11.574;2023-04-24T01:56:22;15.60;68.20
8103;DHT22;4094;49.948;11.574;2023-04-24T01:58:52;15.60;68.10
8103;DHT22;4094;49.948;11.574;2023-04-24T02:01:24;15.60;68.30
8103;DHT22;4094;49.948;11.574;2023-04-24T02:03:53;15.60;68.20
8103;DHT22;4094;49.948;11.574;2023-04-24T02:06:23;15.60;68.10
8103;DHT22;4094;49.948;11.574;2023-04-24T02:08:54;15.50;67.90
8103;DHT22;4094;49.948;11.574;2023-04-24T02:11:24;15.50;67.80
8103;DHT22;4094;49.948;11.574;2023-04-24T02:13:53;15.50;67.90
8103;DHT22;4094;49.948;11.574;2023-04-24T02:16:22;15.50;68.10
8103;DHT22;4094;49.948;11.574;2023-04-24T02:18:52;15.50;68.20
8103;DHT22;4094;49.948;11.574;2023-04-24T02:21:21;15.50;68.20
8103;DHT22;4094;49.948;11.574;2023-04-24T02:23:51;15.40;68.00
8103;DHT22;4094;49.948;11.574;2023-04-24T02:26:23;15.40;68.10
8103;DHT22;4094;49.948;11.574;2023-04-24T02:28:53;15.40;68.10
8103;DHT22;4094;49.948;11.574;2023-04-24T02:31:22;15.40;68.10
8103;DHT22;4094;49.948;11.574;2023-04-24T02:33:52;15.40;68.20
8103;DHT22;4094;49.948;11.574;2023-04-24T02:36:21;15.30;68.40
8103;DHT22;4094;49.948;11.574;2023-04-24T02:38:50;15.40;68.40
8103;DHT22;4094;49.948;11.574;2023-04-24T02:41:20;15.30;68.50
8103;DHT22;4094;49.948;11.574;2023-04-24T02:43:50;15.30;68.50
8103;DHT22;4094;49.948;11.574;2023-04-24T02:46:19;15.30;68.60
8103;DHT22;4094;49.948;11.574;2023-04-24T02:48:49;15.30;68.50
8103;DHT22;4094;49.948;11.574;2023-04-24T02:51:18;15.30;68.60
8103;DHT22;4094;49.948;11.574;2023-04-24T02:53:47;15.30;68.50
8103;DHT22;4094;49.948;11.574;2023-04-24T02:56:17;15.30;68.40
8103;DHT22;4094;49.948;11.574;2023-04-24T02:58:46;15.30;68.40
8103;DHT22;4094;49.948;11.574;2023-04-24T03:01:16;15.20;68.40
8103;DHT22;4094;49.948;11.574;2023-04-24T03:03:46;15.20;68.50
8103;DHT22;4094;49.948;11.574;2023-04-24T03:06:15;15.20;68.50
8103;DHT22;4094;49.948;11.574;2023-04-24T03:08:44;15.20;68.60
8103;DHT22;4094;49.948;11.574;2023-04-24T03:11:14;15.10;68.60
8103;DHT22;4094;49.948;11.574;2023-04-24T03:13:43;15.10;68.70
8103;DHT22;4094;49.948;11.574;2023-04-24T03:16:12;15.10;68.80
8103;DHT22;4094;49.948;11.574;2023-04-24T03:18:43;15.10;68.90
8103;DHT22;4094;49.948;11.574;2023-04-24T03:21:13;15.00;68.90
8103;DHT22;4094;49.948;11.574;2023-04-24T03:23:43;15.10;69.10
8103;DHT22;4094;49.948;11.574;2023-04-24T03:26:13;15.00;69.00
8103;DHT22;4094;49.948;11.574;2023-04-24T03:28:53;15.00;69.10
8103;DHT22;4094;49.948;11.574;2023-04-24T03:31:23;15.00;69.20
8103;DHT22;4094;49.948;11.574;2023-04-24T03:33:54;15.00;69.20
8103;DHT22;4094;49.948;11.574;2023-04-24T03:36:24;14.90;69.40
8103;DHT22;4094;49.948;11.574;2023-04-24T03:38:54;14.90;69.40
8103;DHT22;4094;49.948;11.574;2023-04-24T03:41:27;14.90;69.40
8103;DHT22;4094;49.948;11.574;2023-04-24T03:44:30;14.90;69.40
8103;DHT22;4094;49.948;11.574;2023-04-24T03:46:59;15.00;69.40
8103;DHT22;4094;49.948;11.574;2023-04-24T03:49:30;14.90;69.40
8103;DHT22;4094;49.948;11.574;2023-04-24T03:51:59;14.90;69.30
8103;DHT22;4094;49.948;11.574;2023-04-24T03:54:29;14.90;69.60
8103;DHT22;4094;49.948;11.574;2023-04-24T03:56:59;14.90;69.60
8103;DHT22;4094;49.948;11.574;2023-04-24T03:59:31;15.00;69.60
8103;DHT22;4094;49.948;11.574;2023-04-24T04:02:10;15.00;69.60
8103;DHT22;4094;49.948;11.574;2023-04-24T04:04:40;15.00;69.70
8103;DHT22;4094;49.948;11.574;2023-04-24T04:07:10;15.00;69.60
8103;DHT22;4094;49.948;11.574;2023-04-24T04:09:40;15.00;69.40
8103;DHT22;4094;49.948;11.574;2023-04-24T04:12:10;15.00;69.40
8103;DHT22;4094;49.948;11.574;2023-04-24T04:14:40;15.00;69.60
8103;DHT22;4094;49.948;11.574;2023-04-24T04:17:10;15.00;69.70
8103;DHT22;4094;49.948;11.574;2023-04-24T04:19:41;15.00;69.70
8103;DHT22;4094;49.948;11.574;2023-04-24T04:22:11;15.00;69.70
8103;DHT22;4094;49.948;11.574;2023-04-24T04:24:44;15.00;69.60
8103;DHT22;4094;49.948;11.574;2023-04-24T04:27:14;15.00;69.50
8103;DHT22;4094;49.948;11.574;2023-04-24T04:29:55;15.00;69.40
8103;DHT22;4094;49.948;11.574;2023-04-24T04:32:25;15.00;69.30
8103;DHT22;4094;49.948;11.574;2023-04-24T04:34:56;15.00;69.40
8103;DHT22;4094;49.948;11.574;2023-04-24T04:37:28;15.00;69.30
8103;DHT22;4094;49.948;11.574;2023-04-24T04:40:16;15.00;69.30
8103;DHT22;4094;49.948;11.574;2023-04-24T04:42:57;15.00;69.20
8103;DHT22;4094;49.948;11.574;2023-04-24T04:45:31;15.10;69.40
8103;DHT22;4094;49.948;11.574;2023-04-24T04:48:28;15.10;69.60
8103;DHT22;4094;49.948;11.574;2023-04-24T04:51:02;15.10;69.40
8103;DHT22;4094;49.948;11.574;2023-04-24T04:53:32;15.10;69.40
8103;DHT22;4094;49.948;11.574;2023-04-24T04:56:02;15.10;69.40
8103;DHT22;4094;49.948;11.574;2023-04-24T04:58:38;15.10;69.40
8103;DHT22;4094;49.948;11.574;2023-04-24T05:01:10;15.10;69.00
8103;DHT22;4094;49.948;11.574;2023-04-24T05:03:42;15.10;68.60
8103;DHT22;4094;49.948;11.574;2023-04-24T05:06:16;15.10;68.40
8103;DHT22;4094;49.948;11.574;2023-04-24T05:08:46;15.10;68.30
8103;DHT22;4094;49.948;11.574;2023-04-24T05:11:30;15.10;68.30
8103;DHT22;4094;49.948;11.574;2023-04-24T05:14:02;15.10;68.20
8103;DHT22;4094;49.948;11.574;2023-04-24T05:16:37;15.10;68.10
8103;DHT22;4094;49.948;11.574;2023-04-24T05:19:07;15.10;67.70
8103;DHT22;4094;49.948;11.574;2023-04-24T05:21:41;15.10;67.90
8103;DHT22;4094;49.948;11.574;2023-04-24T05:24:11;15.10;67.80
8103;DHT22;4094;49.948;11.574;2023-04-24T05:26:48;15.10;67.80
8103;DHT22;4094;49.948;11.574;2023-04-24T05:29:23;15.10;67.50
8103;DHT22;4094;49.948;11.574;2023-04-24T05:31:54;15.10;68.10
8103;DHT22;4094;49.948;11.574;2023-04-24T05:34:24;15.00;67.30
8103;DHT22;4094;49.948;11.574;2023-04-24T05:36:57;15.00;67.40
8103;DHT22;4094;49.948;11.574;2023-04-24T05:39:27;15.00;67.40
8103;DHT22;4094;49.948;11.574;2023-04-24T05:41:56;15.00;67.30
8103;DHT22;4094;49.948;11.574;2023-04-24T05:44:26;15.00;67.40
8103;DHT22;4094;49.948;11.574;2023-04-24T05:46:55;15.10;67.60
8103;DHT22;4094;49.948;11.574;2023-04-24T05:49:25;15.10;67.80
8103;DHT22;4094;49.948;11.574;2023-04-24T05:51:56;15.10;67.60
8103;DHT22;4094;49.948;11.574;2023-04-24T05:54:26;15.20;67.60
8103;DHT22;4094;49.948;11.574;2023-04-24T05:56:56;15.20;67.30
8103;DHT22;4094;49.948;11.574;2023-04-24T05:59:37;15.30;67.10
8103;DHT22;4094;49.948;11.574;2023-04-24T06:02:07;15.30;66.80
8103;DHT22;4094;49.948;11.574;2023-04-24T06:04:37;15.30;66.60
8103;DHT22;4094;49.948;11.574;2023-04-24T06:07:08;15.30;66.60
8103;DHT22;4094;49.948;11.574;2023-04-24T06:09:37;15.30;66.80
8103;DHT22;4094;49.948;11.574;2023-04-24T06:12:07;15.30;66.80
8103;DHT22;4094;49.948;11.574;2023-04-24T06:14:51;15.30;66.80
8103;DHT22;4094;49.948;11.574;2023-04-24T06:17:25;15.30;67.10
8103;DHT22;4094;49.948;11.574;2023-04-24T06:19:55;15.40;66.90
8103;DHT22;4094;49.948;11.574;2023-04-24T06:22:27;15.40;66.70
8103;DHT22;4094;49.948;11.574;2023-04-24T06:24:57;15.50;66.70
8103;DHT22;4094;49.948;11.574;2023-04-24T06:27:26;15.40;66.40
8103;DHT22;4094;49.948;11.574;2023-04-24T06:29:55;15.50;66.20
8103;DHT22;4094;49.948;11.574;2023-04-24T06:32:25;15.50;66.00
8103;DHT22;4094;49.948;11.574;2023-04-24T06:34:55;15.50;66.20
8103;DHT22;4094;49.948;11.574;2023-04-24T06:37:27;15.50;66.10
8103;DHT22;4094;49.948;11.574;2023-04-24T06:39:57;15.60;66.10
8103;DHT22;4094;49.948;11.574;2023-04-24T06:42:26;15.60;66.00
8103;DHT22;4094;49.948;11.574;2023-04-24T06:44:56;15.60;65.80
8103;DHT22;4094;49.948;11.574;2023-04-24T06:47:25;15.60;65.70
8103;DHT22;4094;49.948;11.574;2023-04-24T06:49:57;15.70;66.20
8103;DHT22;4094;49.948;11.574;2023-04-24T06:52:28;15.70;66.00
8103;DHT22;4094;49.948;11.574;2023-04-24T06:55:00;15.70;66.10
8103;DHT22;4094;49.948;11.574;2023-04-24T06:57:31;15.80;66.40
8103;DHT22;4094;49.948;11.574;2023-04-24T07:00:00;15.80;66.00
8103;DHT22;4094;49.948;11.574;2023-04-24T07:02:31;15.90;66.00
8103;DHT22;4094;49.948;11.574;2023-04-24T07:05:01;16.00;66.00
8103;DHT22;4094;49.948;11.574;2023-04-24T07:07:32;16.00;65.90
8103;DHT22;4094;49.948;11.574;2023-04-24T07:10:02;16.00;66.20
8103;DHT22;4094;49.948;11.574;2023-04-24T07:12:31;16.10;66.50
8103;DHT22;4094;49.948;11.574;2023-04-24T07:15:01;16.10;66.30
8103;DHT22;4094;49.948;11.574;2023-04-24T07:17:31;16.10;66.20
8103;DHT22;4094;49.948;11.574;2023-04-24T07:20:00;16.10;66.40
8103;DHT22;4094;49.948;11.574;2023-04-24T07:22:29;16.00;66.50
8103;DHT22;4094;49.948;11.574;2023-04-24T07:25:00;16.10;67.00
8103;DHT22;4094;49.948;11.574;2023-04-24T07:27:29;16.10;67.10
8103;DHT22;4094;49.948;11.574;2023-04-24T07:29:58;16.10;67.00
8103;DHT22;4094;49.948;11.574;2023-04-24T07:32:28;16.10;67.50
8103;DHT22;4094;49.948;11.574;2023-04-24T07:34:57;16.10;67.30
8103;DHT22;4094;49.948;11.574;2023-04-24T07:37:28;16.10;67.10
8103;DHT22;4094;49.948;11.574;2023-04-24T07:39:57;16.20;67.00
8103;DHT22;4094;49.948;11.574;2023-04-24T07:42:28;16.20;67.10
8103;DHT22;4094;49.948;11.574;2023-04-24T07:44:58;16.30;67.30
8103;DHT22;4094;49.948;11.574;2023-04-24T07:47:47;16.40;67.20
8103;DHT22;4094;49.948;11.574;2023-04-24T07:50:16;16.50;66.70
8103;DHT22;4094;49.948;11.574;2023-04-24T07:52:45;16.60;65.80
8103;DHT22;4094;49.948;11.574;2023-04-24T07:55:14;16.70;64.90
8103;DHT22;4094;49.948;11.574;2023-04-24T07:57:43;16.80;64.60
8103;DHT22;4094;49.948;11.574;2023-04-24T08:00:13;16.80;63.60
8103;DHT22;4094;49.948;11.574;2023-04-24T08:02:42;16.80;63.70
8103;DHT22;4094;49.948;11.574;2023-04-24T08:05:12;16.80;62.30
8103;DHT22;4094;49.948;11.574;2023-04-24T08:07:42;16.90;62.60
8103;DHT22;4094;49.948;11.574;2023-04-24T08:10:11;16.80;62.30
8103;DHT22;4094;49.948;11.574;2023-04-24T08:12:41;16.80;61.70
8103;DHT22;4094;49.948;11.574;2023-04-24T08:15:11;16.80;61.70
8103;DHT22;4094;49.948;11.574;2023-04-24T08:17:40;16.80;61.50
8103;DHT22;4094;49.948;11.574;2023-04-24T08:20:12;16.80;61.00
8103;DHT22;4094;49.948;11.574;2023-04-24T08:22:43;16.90;61.00
8103;DHT22;4094;49.948;11.574;2023-04-24T08:25:15;16.90;60.90
8103;DHT22;4094;49.948;11.574;2023-04-24T08:27:45;17.00;60.90
8103;DHT22;4094;49.948;11.574;2023-04-24T08:30:14;17.10;60.70
8103;DHT22;4094;49.948;11.574;2023-04-24T08:32:44;17.10;59.80
8103;DHT22;4094;49.948;11.574;2023-04-24T08:35:14;17.20;59.60
8103;DHT22;4094;49.948;11.574;2023-04-24T08:37:44;17.20;58.90
8103;DHT22;4094;49.948;11.574;2023-04-24T08:40:14;17.20;58.70
8103;DHT22;4094;49.948;11.574;2023-04-24T08:42:44;17.20;58.80
8103;DHT22;4094;49.948;11.574;2023-04-24T08:45:14;17.20;58.20
8103;DHT22;4094;49.948;11.574;2023-04-24T08:47:43;17.20;58.10
8103;DHT22;4094;49.948;11.574;2023-04-24T08:50:15;17.20;58.20
8103;DHT22;4094;49.948;11.574;2023-04-24T08:52:44;17.20;57.40
8103;DHT22;4094;49.948;11.574;2023-04-24T08:55:14;17.10;57.80
8103;DHT22;4094;49.948;11.574;2023-04-24T08:57:45;17.10;57.50
8103;DHT22;4094;49.948;11.574;2023-04-24T09:00:18;17.10;57.00
8103;DHT22;4094;49.948;11.574;2023-04-24T09:02:49;17.20;57.60
8103;DHT22;4094;49.948;11.574;2023-04-24T09:05:22;17.20;57.10
8103;DHT22;4094;49.948;11.574;2023-04-24T09:07:56;17.20;56.60
8103;DHT22;4094;49.948;11.574;2023-04-24T09:10:26;17.20;56.40
8103;DHT22;4094;49.948;11.574;2023-04-24T09:12:59;17.20;57.10
8103;DHT22;4094;49.948;11.574;2023-04-24T09:15:30;17.30;57.10
8103;DHT22;4094;49.948;11.574;2023-04-24T09:17:59;17.30;56.80
8103;DHT22;4094;49.948;11.574;2023-04-24T09:20:30;17.30;57.20
8103;DHT22;4094;49.948;11.574;2023-04-24T09:23:00;17.40;56.70
8103;DHT22;4094;49.948;11.574;2023-04-24T09:25:31;17.40;56.50
8103;DHT22;4094;49.948;11.574;2023-04-24T09:28:02;17.40;55.70
8103;DHT22;4094;49.948;11.574;2023-04-24T09:30:32;17.40;56.10
8103;DHT22;4094;49.948;11.574;2023-04-24T09:33:11;17.40;55.20
8103;DHT22;4094;49.948;11.574;2023-04-24T09:35:48;17.30;54.10
8103;DHT22;4094;49.948;11.574;2023-04-24T09:38:17;17.30;54.40
8103;DHT22;4094;49.948;11.574;2023-04-24T09:40:47;17.30;54.30
8103;DHT22;4094;49.948;11.574;2023-04-24T09:43:17;17.20;54.50
8103;DHT22;4094;49.948;11.574;2023-04-24T09:45:46;17.20;53.70
8103;DHT22;4094;49.948;11.574;2023-04-24T09:48:16;17.10;53.30
8103;DHT22;4094;49.948;11.574;2023-04-24T09:50:47;17.10;53.70
8103;DHT22;4094;49.948;11.574;2023-04-24T09:53:23;17.00;54.50
8103;DHT22;4094;49.948;11.574;2023-04-24T09:55:53;17.00;54.10
8103;DHT22;4094;49.948;11.574;2023-04-24T09:58:26;17.10;55.30
8103;DHT22;4094;49.948;11.574;2023-04-24T10:00:56;17.20;55.10
8103;DHT22;4094;49.948;11.574;2023-04-24T10:03:26;17.20;54.00
8103;DHT22;4094;49.948;11.574;2023-04-24T10:06:00;17.30;54.00
8103;DHT22;4094;49.948;11.574;2023-04-24T10:08:34;17.30;53.00
8103;DHT22;4094;49.948;11.574;2023-04-24T10:11:03;17.40;53.90
8103;DHT22;4094;49.948;11.574;2023-04-24T10:13:33;17.40;53.90
8103;DHT22;4094;49.948;11.574;2023-04-24T10:16:03;17.50;53.80
8103;DHT22;4094;49.948;11.574;2023-04-24T10:18:33;17.50;53.50
8103;DHT22;4094;49.948;11.574;2023-04-24T10:21:05;17.50;52.70
8103;DHT22;4094;49.948;11.574;2023-04-24T10:23:35;17.40;52.10
8103;DHT22;4094;49.948;11.574;2023-04-24T10:26:05;17.40;52.80
8103;DHT22;4094;49.948;11.574;2023-04-24T10:28:36;17.40;52.30
8103;DHT22;4094;49.948;11.574;2023-04-24T10:31:05;17.40;52.60
8103;DHT22;4094;49.948;11.574;2023-04-24T10:33:35;17.30;51.90
8103;DHT22;4094;49.948;11.574;2023-04-24T10:36:06;17.30;51.70
8103;DHT22;4094;49.948;11.574;2023-04-24T10:38:37;17.30;51.90
8103;DHT22;4094;49.948;11.574;2023-04-24T10:41:09;17.30;52.10
8103;DHT22;4094;49.948;11.574;2023-04-24T10:43:44;17.30;51.60
8103;DHT22;4094;49.948;11.574;2023-04-24T10:46:19;17.20;51.40
8103;DHT22;4094;49.948;11.574;2023-04-24T10:48:53;17.20;51.00
8103;DHT22;4094;49.948;11.574;2023-04-24T10:51:26;17.20;51.40
8103;DHT22;4094;49.948;11.574;2023-04-24T10:54:22;17.20;52.10
8103;DHT22;4094;49.948;11.574;2023-04-24T10:56:52;17.20;51.60
8103;DHT22;4094;49.948;11.574;2023-04-24T10:59:26;17.20;52.10
8103;DHT22;4094;49.948;11.574;2023-04-24T11:01:55;17.20;52.50
8103;DHT22;4094;49.948;11.574;2023-04-24T11:04:29;17.20;51.90
8103;DHT22;4094;49.948;11.574;2023-04-24T11:07:01;17.20;51.40
8103;DHT22;4094;49.948;11.574;2023-04-24T11:09:32;17.20;51.70
8103;DHT22;4094;49.948;11.574;2023-04-24T11:12:05;17.30;51.70
8103;DHT22;4094;49.948;11.574;2023-04-24T11:15:00;17.20;52.00
8103;DHT22;4094;49.948;11.574;2023-04-24T11:17:32;17.30;53.00
8103;DHT22;4094;49.948;11.574;2023-04-24T11:20:03;17.30;52.60
8103;DHT22;4094;49.948;11.574;2023-04-24T11:22:55;17.20;51.90
8103;DHT22;4094;49.948;11.574;2023-04-24T11:25:25;17.20;51.90
8103;DHT22;4094;49.948;11.574;2023-04-24T11:28:05;17.20;52.50
8103;DHT22;4094;49.948;11.574;2023-04-24T11:30:35;17.20;52.40
8103;DHT22;4094;49.948;11.574;2023-04-24T11:33:08;17.20;52.40
8103;DHT22;4094;49.948;11.574;2023-04-24T11:35:40;17.20;51.70
8103;DHT22;4094;49.948;11.574;2023-04-24T11:38:11;17.30;51.80
8103;DHT22;4094;49.948;11.574;2023-04-24T11:40:52;17.40;50.80
8103;DHT22;4094;49.948;11.574;2023-04-24T11:43:22;17.40;50.20
8103;DHT22;4094;49.948;11.574;2023-04-24T11:45:52;17.50;50.70
8103;DHT22;4094;49.948;11.574;2023-04-24T11:48:22;17.70;50.30
8103;DHT22;4094;49.948;11.574;2023-04-24T11:50:51;17.80;51.10
8103;DHT22;4094;49.948;11.574;2023-04-24T11:53:23;17.90;49.20
8103;DHT22;4094;49.948;11.574;2023-04-24T11:55:52;18.00;48.90
8103;DHT22;4094;49.948;11.574;2023-04-24T11:58:21;18.00;49.40
8103;DHT22;4094;49.948;11.574;2023-04-24T12:00:56;18.20;49.40
8103;DHT22;4094;49.948;11.574;2023-04-24T12:03:26;18.20;49.20
8103;DHT22;4094;49.948;11.574;2023-04-24T12:06:05;18.40;49.50
8103;DHT22;4094;49.948;11.574;2023-04-24T12:08:37;18.40;49.30
8103;DHT22;4094;49.948;11.574;2023-04-24T12:11:07;18.50;49.50
8103;DHT22;4094;49.948;11.574;2023-04-24T12:13:37;18.60;49.60
8103;DHT22;4094;49.948;11.574;2023-04-24T12:16:07;18.70;48.40
8103;DHT22;4094;49.948;11.574;2023-04-24T12:18:41;18.70;47.20
8103;DHT22;4094;49.948;11.574;2023-04-24T12:21:17;18.60;47.10
8103;DHT22;4094;49.948;11.574;2023-04-24T12:23:54;18.60;47.80
8103;DHT22;4094;49.948;11.574;2023-04-24T12:26:24;18.50;47.50
8103;DHT22;4094;49.948;11.574;2023-04-24T12:28:53;18.40;47.80
8103;DHT22;4094;49.948;11.574;2023-04-24T12:31:22;18.40;47.80
8103;DHT22;4094;49.948;11.574;2023-04-24T12:33:52;18.20;48.30
8103;DHT22;4094;49.948;11.574;2023-04-24T12:36:21;18.10;48.20
8103;DHT22;4094;49.948;11.574;2023-04-24T12:38:54;18.00;48.00
8103;DHT22;4094;49.948;11.574;2023-04-24T12:41:23;17.80;48.20
8103;DHT22;4094;49.948;11.574;2023-04-24T12:43:53;17.80;49.10
8103;DHT22;4094;49.948;11.574;2023-04-24T12:46:23;17.70;49.60
8103;DHT22;4094;49.948;11.574;2023-04-24T12:48:53;17.70;49.40
8103;DHT22;4094;49.948;11.574;2023-04-24T12:51:23;17.80;49.70
8103;DHT22;4094;49.948;11.574;2023-04-24T12:53:54;17.90;48.80
8103;DHT22;4094;49.948;11.574;2023-04-24T12:56:23;18.00;48.70
8103;DHT22;4094;49.948;11.574;2023-04-24T12:58:53;18.00;48.80
8103;DHT22;4094;49.948;11.574;2023-04-24T13:01:22;18.00;48.50
8103;DHT22;4094;49.948;11.574;2023-04-24T13:03:51;18.00;48.00
8103;DHT22;4094;49.948;11.574;2023-04-24T13:06:22;18.00;48.10
8103;DHT22;4094;49.948;11.574;2023-04-24T13:08:52;18.00;48.00
8103;DHT22;4094;49.948;11.574;2023-04-24T13:11:24;17.90;47.30
8103;DHT22;4094;49.948;11.574;2023-04-24T13:13:54;17.80;47.00
8103;DHT22;4094;49.948;11.574;2023-04-24T13:16:23;17.70;47.40
8103;DHT22;4094;49.948;11.574;2023-04-24T13:18:53;17.60;47.60
8103;DHT22;4094;49.948;11.574;2023-04-24T13:21:22;17.50;47.70
8103;DHT22;4094;49.948;11.574;2023-04-24T13:23:52;17.50;48.10
8103;DHT22;4094;49.948;11.574;2023-04-24T13:26:21;17.40;48.30
8103;DHT22;4094;49.948;11.574;2023-04-24T13:28:52;17.40;48.40
8103;DHT22;4094;49.948;11.574;2023-04-24T13:31:21;17.40;48.70
8103;DHT22;4094;49.948;11.574;2023-04-24T13:33:51;17.40;48.40
8103;DHT22;4094;49.948;11.574;2023-04-24T13:36:20;17.40;48.60
8103;DHT22;4094;49.948;11.574;2023-04-24T13:38:49;17.50;48.70
8103;DHT22;4094;49.948;11.574;2023-04-24T13:41:18;17.50;48.90
8103;DHT22;4094;49.948;11.574;2023-04-24T13:43:48;17.60;48.80
8103;DHT22;4094;49.948;11.574;2023-04-24T13:46:19;17.70;48.70
8103;DHT22;4094;49.948;11.574;2023-04-24T13:48:49;17.80;48.20
8103;DHT22;4094;49.948;11.574;2023-04-24T13:51:18;17.70;48.30
8103;DHT22;4094;49.948;11.574;2023-04-24T13:53:47;17.80;49.00
8103;DHT22;4094;49.948;11.574;2023-04-24T13:56:17;17.80;49.00
8103;DHT22;4094;49.948;11.574;2023-04-24T13:58:46;17.80;48.70
8103;DHT22;4094;49.948;11.574;2023-04-24T14:01:16;17.80;49.30
8103;DHT22;4094;49.948;11.574;2023-04-24T14:03:47;17.90;49.50
8103;DHT22;4094;49.948;11.574;2023-04-24T14:06:17;17.90;48.70
8103;DHT22;4094;49.948;11.574;2023-04-24T14:08:46;18.00;49.10
8103;DHT22;4094;49.948;11.574;2023-04-24T14:11:16;18.10;49.20
8103;DHT22;4094;49.948;11.574;2023-04-24T14:13:46;18.10;48.50
8103;DHT22;4094;49.948;11.574;2023-04-24T14:16:15;18.20;48.50
8103;DHT22;4094;49.948;11.574;2023-04-24T14:18:44;18.20;48.60
8103;DHT22;4094;49.948;11.574;2023-04-24T14:21:15;18.30;48.10
8103;DHT22;4094;49.948;11.574;2023-04-24T14:23:44;18.20;47.80
8103;DHT22;4094;49.948;11.574;2023-04-24T14:26:14;18.20;48.20
8103;DHT22;4094;49.948;11.574;2023-04-24T14:28:43;18.20;48.20
8103;DHT22;4094;49.948;11.574;2023-04-24T14:31:13;18.20;48.00
8103;DHT22;4094;49.948;11.574;2023-04-24T14:33:43;18.20;48.30
8103;DHT22;4094;49.948;11.574;2023-04-24T14:36:17;18.20;47.80
8103;DHT22;4094;49.948;11.574;2023-04-24T14:38:46;18.20;47.80
8103;DHT22;4094;49.948;11.574;2023-04-24T14:41:16;18.10;47.70
8103;DHT22;4094;49.948;11.574;2023-04-24T14:43:45;18.10;47.80
8103;DHT22;4094;49.948;11.574;2023-04-24T14:46:16;18.00;48.00
8103;DHT22;4094;49.948;11.574;2023-04-24T14:48:45;17.90;47.70
8103;DHT22;4094;49.948;11.574;2023-04-24T14:51:15;17.90;47.70
8103;DHT22;4094;49.948;11.574;2023-04-24T14:53:45;17.90;47.50
8103;DHT22;4094;49.948;11.574;2023-04-24T14:56:15;17.90;48.20
8103;DHT22;4094;49.948;11.574;2023-04-24T14:58:44;17.80;48.00
8103;DHT22;4094;49.948;11.574;2023-04-24T15:01:14;17.80;48.50
8103;DHT22;4094;49.948;11.574;2023-04-24T15:03:44;17.70;49.40
8103;DHT22;4094;49.948;11.574;2023-04-24T15:06:15;17.60;50.00
8103;DHT22;4094;49.948;11.574;2023-04-24T15:08:45;17.50;50.90
8103;DHT22;4094;49.948;11.574;2023-04-24T15:11:17;17.30;51.70
8103;DHT22;4094;49.948;11.574;2023-04-24T15:13:47;17.20;52.50
8103;DHT22;4094;49.948;11.574;2023-04-24T15:16:16;17.00;52.90
8103;DHT22;4094;49.948;11.574;2023-04-24T15:18:46;16.90;53.20
8103;DHT22;4094;49.948;11.574;2023-04-24T15:21:15;16.80;53.40
8103;DHT22;4094;49.948;11.574;2023-04-24T15:23:46;16.70;53.60
8103;DHT22;4094;49.948;11.574;2023-04-24T15:26:15;16.50;54.00
8103;DHT22;4094;49.948;11.574;2023-04-24T15:28:45;16.40;54.20
8103;DHT22;4094;49.948;11.574;2023-04-24T15:31:15;16.30;54.10
8103;DHT22;4094;49.948;11.574;2023-04-24T15:33:44;16.20;54.70
8103;DHT22;4094;49.948;11.574;2023-04-24T15:36:13;16.10;54.70
8103;DHT22;4094;49.948;11.574;2023-04-24T15:38:43;16.10;55.00
8103;DHT22;4094;49.948;11.574;2023-04-24T15:41:14;16.10;55.60
8103;DHT22;4094;49.948;11.574;2023-04-24T15:43:43;16.00;55.90
8103;DHT22;4094;49.948;11.574;2023-04-24T15:46:13;16.00;56.30
8103;DHT22;4094;49.948;11.574;2023-04-24T15:48:43;16.00;55.90
8103;DHT22;4094;49.948;11.574;2023-04-24T15:51:12;16.10;56.40
8103;DHT22;4094;49.948;11.574;2023-04-24T15:53:41;16.10;56.30
8103;DHT22;4094;49.948;11.574;2023-04-24T15:56:10;16.10;55.90
8103;DHT22;4094;49.948;11.574;2023-04-24T15:58:41;16.20;55.80
8103;DHT22;4094;49.948;11.574;2023-04-24T16:01:10;16.20;55.70
8103;DHT22;4094;49.948;11.574;2023-04-24T16:03:40;16.20;55.80
8103;DHT22;4094;49.948;11.574;2023-04-24T16:06:09;16.30;55.40
8103;DHT22;4094;49.948;11.574;2023-04-24T16:08:38;16.20;55.20